Time;durP1;ratioP1;P1;durP2;ratioP2;P2;SDS_P1;SDS_P2;PMS_P1;PMS_P2;Temp;Humidity;BMP_temperature;BMP_pressure;BME280_temperature;BME280_humidity;BME280_pressure;Samples;Min_cycle;Max_cycle;Signal;HPM_P1;HPM_P2
2023/08/03 00:00:32;;;;;;;;;;;;;;;24.35;100.00;98720.78;5098346;28;19920;-60
2023/08/03 00:02:58;;;;;;;;;;;;;;;24.01;100.00;98725.47;5097929;28;19938;-59
2023/08/03 00:05:24;;;;;;;;;;;;;;;23.87;100.00;98726.56;5097938;28;19916;-61
2023/08/03 00:07:50;;;;;;;;;;;;;;;23.87;100.00;98717.56;5102446;28;19920;-60
2023/08/03 00:10:17;;;;;;;;;;;;;;;24.84;100.00;98730.13;5106825;28;19924;-60
2023/08/03 00:12:43;;;;;;;;;;;;;;;24.28;100.00;98740.44;5097181;28;19917;-61
2023/08/03 00:15:09;;;;;;;;;;;;;;;25.31;100.00;98732.31;5103724;28;19924;-61
2023/08/03 00:17:34;;;;;;;;;;;;;;;24.40;100.00;98738.88;5093912;28;19917;-60
2023/08/03 00:20:03;;;;;;;;;;;;;;;23.88;100.00;98735.56;5097947;28;19920;-61
2023/08/03 00:22:28;;;;;;;;;;;;;;;23.13;100.00;98750.75;5090578;28;19983;-62
2023/08/03 00:24:54;;;;;;;;;;;;;;;23.07;100.00;98755.56;5112067;28;19930;-60
2023/08/03 00:27:19;;;;;;;;;;;;;;;23.85;100.00;98753.41;5098448;28;19939;-61
2023/08/03 00:29:45;;;;;;;;;;;;;;;24.11;100.00;98763.28;5103714;28;19924;-61
2023/08/03 00:32:11;;;;;;;;;;;;;;;23.58;100.00;98750.09;5088982;28;20011;-61
2023/08/03 00:34:37;;;;;;;;;;;;;;;23.89;100.00;98751.59;5104122;28;19924;-61
2023/08/03 00:37:02;;;;;;;;;;;;;;;23.37;100.00;98765.69;5080776;28;19988;-61
2023/08/03 00:39:27;;;;;;;;;;;;;;;23.64;100.00;98775.22;5099995;28;19929;-61
2023/08/03 00:41:53;;;;;;;;;;;;;;;23.53;100.00;98791.25;5101528;28;19951;-62
2023/08/03 00:44:19;;;;;;;;;;;;;;;24.83;100.00;98778.56;5090249;28;19928;-62
2023/08/03 00:46:44;;;;;;;;;;;;;;;24.48;100.00;98768.81;5084426;28;19938;-61
2023/08/03 00:49:10;;;;;;;;;;;;;;;24.94;100.00;98780.81;5091612;28;19916;-61
2023/08/03 00:51:36;;;;;;;;;;;;;;;24.99;100.00;98780.56;5115022;28;19927;-62
2023/08/03 00:54:02;;;;;;;;;;;;;;;24.29;100.00;98790.41;5099648;28;19975;-60
2023/08/03 00:56:27;;;;;;;;;;;;;;;25.20;100.00;98785.91;5097633;28;19917;-60
2023/08/03 00:58:53;;;;;;;;;;;;;;;24.48;100.00;98804.34;5097208;28;19924;-61
2023/08/03 01:01:20;;;;;;;;;;;;;;;24.36;100.00;98801.56;5113159;28;19924;-60
2023/08/03 01:03:46;;;;;;;;;;;;;;;24.40;100.00;98813.41;5097575;28;19952;-60
2023/08/03 01:06:11;;;;;;;;;;;;;;;24.42;100.00;98808.41;5097243;28;19923;-60
2023/08/03 01:08:37;;;;;;;;;;;;;;;25.11;100.00;98818.03;5097081;28;19916;-60
2023/08/03 01:11:03;;;;;;;;;;;;;;;24.79;100.00;98835.00;5097075;28;19917;-61
2023/08/03 01:13:28;;;;;;;;;;;;;;;23.44;100.00;98834.13;5079662;28;19999;-61
2023/08/03 01:15:54;;;;;;;;;;;;;;;23.35;100.00;98856.00;5106423;28;19971;-62
2023/08/03 01:18:20;;;;;;;;;;;;;;;23.96;100.00;98841.13;5099909;28;19993;-60
2023/08/03 01:20:46;;;;;;;;;;;;;;;24.97;100.00;98832.88;5099365;28;19924;-60
2023/08/03 01:23:12;;;;;;;;;;;;;;;24.88;100.00;98856.78;5079397;28;19975;-61
2023/08/03 01:25:37;;;;;;;;;;;;;;;25.21;100.00;98847.69;5083619;28;19939;-61
2023/08/03 01:28:03;;;;;;;;;;;;;;;24.91;100.00;98848.69;5096730;28;19916;-60
2023/08/03 01:30:29;;;;;;;;;;;;;;;24.28;100.00;98857.09;5096535;28;19928;-60
2023/08/03 01:32:55;;;;;;;;;;;;;;;24.71;100.00;98861.31;5096706;28;20029;-60
2023/08/03 01:35:21;;;;;;;;;;;;;;;23.99;100.00;98875.13;5112520;28;19920;-60
2023/08/03 01:37:46;;;;;;;;;;;;;;;24.81;100.00;98875.69;5079182;28;19928;-61
2023/08/03 01:40:13;;;;;;;;;;;;;;;24.88;100.00;98868.53;5105958;28;19999;-60
2023/08/03 01:42:39;;;;;;;;;;;;;;;24.10;100.00;98865.44;5110556;28;19912;-60
2023/08/03 01:45:05;;;;;;;;;;;;;;;24.76;100.00;98877.50;5112491;28;19913;-60
2023/08/03 01:47:31;;;;;;;;;;;;;;;24.41;100.00;98875.09;5108039;28;19948;-60
2023/08/03 01:49:57;;;;;;;;;;;;;;;25.13;100.00;98879.47;5096042;28;19917;-60
2023/08/03 01:52:22;;;;;;;;;;;;;;;25.10;100.00;98882.91;5098126;28;19931;-60
2023/08/03 01:54:49;;;;;;;;;;;;;;;25.42;100.00;98896.00;5078740;28;19934;-60
2023/08/03 01:57:15;;;;;;;;;;;;;;;24.97;100.00;98884.81;5102785;28;19921;-60
2023/08/03 01:59:40;;;;;;;;;;;;;;;24.27;100.00;98888.28;5112157;28;19920;-62
2023/08/03 02:02:06;;;;;;;;;;;;;;;24.58;100.00;98895.19;5112205;28;19916;-61
2023/08/03 02:04:32;;;;;;;;;;;;;;;24.39;100.00;98893.75;5108078;28;19923;-59
2023/08/03 02:07:06;;;;;;;;;;;;;;;25.00;100.00;98895.06;5099074;28;20176;-60
2023/08/03 02:09:31;;;;;;;;;;;;;;;24.98;100.00;98896.53;5078454;28;19925;-58
2023/08/03 02:11:57;;;;;;;;;;;;;;;24.35;100.00;98892.84;5078040;28;19916;-62
2023/08/03 02:14:23;;;;;;;;;;;;;;;24.10;100.00;98894.66;5095627;28;19916;-60
2023/08/03 02:16:49;;;;;;;;;;;;;;;24.37;100.00;98897.97;5078350;28;19924;-60
2023/08/03 02:19:15;;;;;;;;;;;;;;;24.69;100.00;98898.28;5078001;28;19928;-60
2023/08/03 02:21:41;;;;;;;;;;;;;;;24.33;100.00;98903.31;5078419;28;19917;-60
2023/08/03 02:24:06;;;;;;;;;;;;;;;24.53;100.00;98895.41;5086203;28;19923;-60
2023/08/03 02:26:32;;;;;;;;;;;;;;;24.32;100.00;98898.97;5078277;28;19916;-60
2023/08/03 02:28:57;;;;;;;;;;;;;;;24.68;100.00;98907.63;5095472;28;19923;-60
2023/08/03 02:31:24;;;;;;;;;;;;;;;23.62;100.00;98897.53;5078303;28;19917;-60
2023/08/03 02:33:51;;;;;;;;;;;;;;;23.73;100.00;98889.78;5119049;28;19916;-60
2023/08/03 02:36:23;;;;;;;;;;;;;;;24.09;100.00;98887.59;5121631;28;19951;-59
2023/08/03 02:38:53;;;;;;;;;;;;;;;23.85;100.00;98905.41;5078206;28;19920;-60
2023/08/03 02:41:18;;;;;;;;;;;;;;;23.18;100.00;98911.38;5111574;28;19959;-60
2023/08/03 02:43:44;;;;;;;;;;;;;;;23.45;100.00;98909.38;5096319;28;19916;-60
2023/08/03 02:46:13;;;;;;;;;;;;;;;23.78;100.00;98897.78;5119986;28;19917;-59
2023/08/03 02:48:42;;;;;;;;;;;;;;;23.66;100.00;98893.03;5111679;28;19916;-60
2023/08/03 02:51:08;;;;;;;;;;;;;;;24.83;100.00;98900.75;5077669;28;20306;-59
2023/08/03 02:53:36;;;;;;;;;;;;;;;24.83;100.00;98903.47;5077907;28;19920;-60
2023/08/03 02:56:03;;;;;;;;;;;;;;;25.61;100.00;98907.19;5111028;28;19916;-60
2023/08/03 02:58:34;;;;;;;;;;;;;;;25.19;100.00;98901.94;5111574;28;19920;-59
2023/08/03 03:01:04;;;;;;;;;;;;;;;24.62;100.00;98901.56;5082008;28;19916;-60
2023/08/03 03:03:30;;;;;;;;;;;;;;;25.44;100.00;98904.66;5098729;28;19992;-61
2023/08/03 03:05:56;;;;;;;;;;;;;;;25.29;100.00;98904.19;5099572;28;19924;-59
2023/08/03 03:08:21;;;;;;;;;;;;;;;24.75;100.00;98907.91;5086636;28;19916;-60
2023/08/03 03:10:47;;;;;;;;;;;;;;;25.54;100.00;98909.69;5121378;28;19923;-60
2023/08/03 03:13:13;;;;;;;;;;;;;;;25.57;100.00;98913.69;5077432;28;19947;-60
2023/08/03 03:15:43;;;;;;;;;;;;;;;25.35;100.00;98907.50;5111083;28;19916;-60
2023/08/03 03:18:09;;;;;;;;;;;;;;;25.26;100.00;98910.34;5112371;28;19927;-60
2023/08/03 03:20:35;;;;;;;;;;;;;;;24.54;100.00;98905.19;5097521;28;19917;-60
2023/08/03 03:23:00;;;;;;;;;;;;;;;24.72;100.00;98903.88;5095150;28;19912;-60
2023/08/03 03:25:25;;;;;;;;;;;;;;;24.21;100.00;98917.72;5100171;28;19917;-60
2023/08/03 03:27:52;;;;;;;;;;;;;;;24.70;100.00;98919.84;5089000;28;19927;-61
2023/08/03 03:30:18;;;;;;;;;;;;;;;24.32;100.00;98921.59;5081093;28;20009;-60
2023/08/03 03:32:45;;;;;;;;;;;;;;;24.32;100.00;98913.41;5098995;28;19917;-59
2023/08/03 03:35:11;;;;;;;;;;;;;;;24.27;100.00;98927.28;5127340;28;20055;-59
2023/08/03 03:37:37;;;;;;;;;;;;;;;24.03;100.00;98933.44;5115095;28;19921;-59
2023/08/03 03:40:02;;;;;;;;;;;;;;;23.73;100.00;98952.53;5098241;28;19917;-61
2023/08/03 03:42:35;;;;;;;;;;;;;;;23.88;100.00;98938.31;5081453;28;19921;-61
2023/08/03 03:45:01;;;;;;;;;;;;;;;23.89;100.00;98939.13;5098359;28;19922;-60
2023/08/03 03:47:28;;;;;;;;;;;;;;;24.13;100.00;98948.63;5092000;28;19916;-60
2023/08/03 03:49:56;;;;;;;;;;;;;;;23.97;100.00;98945.63;5082724;28;19916;-59
2023/08/03 03:52:22;;;;;;;;;;;;;;;24.19;100.00;98958.22;5098471;28;20003;-58
2023/08/03 03:54:48;;;;;;;;;;;;;;;24.26;100.00;98950.25;5114769;28;19916;-60
2023/08/03 03:57:15;;;;;;;;;;;;;;;24.00;100.00;98964.09;5089120;28;19923;-60
2023/08/03 03:59:41;;;;;;;;;;;;;;;23.84;100.00;98969.31;5082388;28;19921;-59
2023/08/03 04:02:07;;;;;;;;;;;;;;;23.96;100.00;98982.25;5081082;28;19931;-61
2023/08/03 04:04:32;;;;;;;;;;;;;;;24.15;100.00;98973.66;5101215;28;19946;-61
2023/08/03 04:06:59;;;;;;;;;;;;;;;24.25;100.00;98977.94;5085766;28;20081;-60
2023/08/03 04:09:26;;;;;;;;;;;;;;;24.26;100.00;98979.53;5098978;28;19917;-60
2023/08/03 04:11:52;;;;;;;;;;;;;;;23.59;100.00;98983.59;5114498;28;19996;-60
2023/08/03 04:14:17;;;;;;;;;;;;;;;23.48;100.00;98990.53;5097956;28;19923;-60
2023/08/03 04:16:44;;;;;;;;;;;;;;;23.25;100.00;98987.22;5102189;28;19983;-60
2023/08/03 04:19:10;;;;;;;;;;;;;;;24.37;100.00;98996.31;5099403;28;19924;-61
2023/08/03 04:21:35;;;;;;;;;;;;;;;24.20;100.00;98993.34;5080684;28;19920;-59
2023/08/03 04:24:01;;;;;;;;;;;;;;;23.69;100.00;99000.72;5082448;28;19948;-60
2023/08/03 04:26:26;;;;;;;;;;;;;;;23.99;100.00;99012.44;5089607;28;19980;-60
2023/08/03 04:28:53;;;;;;;;;;;;;;;23.89;100.00;99010.88;5115162;28;19916;-59
2023/08/03 04:31:19;;;;;;;;;;;;;;;24.04;100.00;99030.59;5113847;28;19923;-59
2023/08/03 04:33:49;;;;;;;;;;;;;;;24.15;100.00;99011.88;5080270;28;19916;-60
2023/08/03 04:36:15;;;;;;;;;;;;;;;23.99;100.00;99026.09;5119809;28;20008;-59
2023/08/03 04:38:42;;;;;;;;;;;;;;;23.91;100.00;99037.84;5110160;28;19916;-60
2023/08/03 04:41:08;;;;;;;;;;;;;;;24.52;100.00;99035.88;5097309;28;19922;-59
2023/08/03 04:43:42;;;;;;;;;;;;;;;24.48;100.00;99042.03;5080104;28;20083;-59
2023/08/03 04:46:09;;;;;;;;;;;;;;;24.30;100.00;99040.53;5119065;28;19916;-59
2023/08/03 04:48:34;;;;;;;;;;;;;;;24.47;100.00;99051.34;5084842;28;19923;-58
2023/08/03 04:51:02;;;;;;;;;;;;;;;24.37;100.00;99053.69;5079614;28;19917;-59
2023/08/03 04:53:28;;;;;;;;;;;;;;;24.09;100.00;99056.88;5097563;28;19996;-58
2023/08/03 04:55:53;;;;;;;;;;;;;;;24.26;100.00;99054.03;5074362;28;19939;-59
2023/08/03 04:58:19;;;;;;;;;;;;;;;24.78;100.00;99054.81;5084401;28;19904;-61
2023/08/03 05:00:48;;;;;;;;;;;;;;;24.06;100.00;99058.34;5106841;28;19916;-61
2023/08/03 05:03:13;;;;;;;;;;;;;;;24.14;100.00;99056.72;5097133;28;19927;-60
2023/08/03 05:05:39;;;;;;;;;;;;;;;23.98;100.00;99056.44;5079698;28;20448;-60
2023/08/03 05:08:06;;;;;;;;;;;;;;;24.81;100.00;99069.75;5100953;28;19916;-60
2023/08/03 05:10:33;;;;;;;;;;;;;;;23.87;100.00;99075.91;5075456;28;19916;-60
2023/08/03 05:12:59;;;;;;;;;;;;;;;23.55;100.00;99067.22;5079572;28;19975;-59
2023/08/03 05:15:25;;;;;;;;;;;;;;;24.22;100.00;99079.63;5115590;28;19921;-60
2023/08/03 05:17:52;;;;;;;;;;;;;;;24.69;100.00;99093.16;5096831;28;19916;-58
2023/08/03 05:20:17;;;;;;;;;;;;;;;25.02;100.00;99089.66;5077001;28;19943;-60
2023/08/03 05:22:43;;;;;;;;;;;;;;;24.69;100.00;99087.69;5076858;28;19963;-60
2023/08/03 05:25:09;;;;;;;;;;;;;;;24.46;100.00;99090.72;5099713;28;19916;-60
2023/08/03 05:27:34;;;;;;;;;;;;;;;24.23;100.00;99100.34;5091071;28;19924;-61
2023/08/03 05:30:00;;;;;;;;;;;;;;;24.08;100.00;99107.97;5079096;28;19935;-60
2023/08/03 05:32:25;;;;;;;;;;;;;;;23.68;100.00;99111.81;5091020;28;19927;-60
2023/08/03 05:34:51;;;;;;;;;;;;;;;23.88;100.00;99104.81;5096484;28;19976;-59
2023/08/03 05:37:16;;;;;;;;;;;;;;;24.01;100.00;99104.94;5091782;28;19924;-59
2023/08/03 05:39:42;;;;;;;;;;;;;;;24.13;100.00;99118.69;5096279;28;19928;-61
2023/08/03 05:42:11;;;;;;;;;;;;;;;23.78;100.00;99118.84;5093178;28;19978;-60
2023/08/03 05:44:36;;;;;;;;;;;;;;;24.11;100.00;99129.16;5096530;28;19916;-59
2023/08/03 05:47:02;;;;;;;;;;;;;;;24.51;100.00;99124.44;5095505;28;19928;-60
2023/08/03 05:49:28;;;;;;;;;;;;;;;24.65;100.00;99126.91;5095000;28;19983;-60
2023/08/03 05:51:53;;;;;;;;;;;;;;;25.11;100.00;99135.28;5096048;28;19972;-60
2023/08/03 05:54:19;;;;;;;;;;;;;;;25.27;100.00;99135.47;5095930;28;19916;-61
2023/08/03 05:56:46;;;;;;;;;;;;;;;24.68;100.00;99146.19;5083102;28;20028;-60
2023/08/03 05:59:19;;;;;;;;;;;;;;;23.67;100.00;99139.41;5095960;28;19987;-61
2023/08/03 06:01:49;;;;;;;;;;;;;;;24.40;100.00;99138.47;5107036;28;19912;-59
2023/08/03 06:04:18;;;;;;;;;;;;;;;24.29;100.00;99143.50;5102145;28;19917;-60
2023/08/03 06:06:45;;;;;;;;;;;;;;;24.39;100.00;99155.22;5085727;28;19996;-62
2023/08/03 06:09:14;;;;;;;;;;;;;;;23.94;100.00;99160.03;5095935;28;19935;-60
2023/08/03 06:11:40;;;;;;;;;;;;;;;24.99;100.00;99158.69;5091988;28;19921;-60
2023/08/03 06:14:15;;;;;;;;;;;;;;;24.63;100.00;99168.22;5094862;28;19943;-60
2023/08/03 06:16:42;;;;;;;;;;;;;;;25.04;100.00;99172.16;5096011;28;19917;-62
2023/08/03 06:19:09;;;;;;;;;;;;;;;23.79;100.00;99185.94;5095791;28;19984;-59
2023/08/03 06:21:35;;;;;;;;;;;;;;;24.55;100.00;99180.81;5095820;28;19916;-59
2023/08/03 06:24:01;;;;;;;;;;;;;;;24.99;100.00;99186.03;5095528;28;19948;-60
2023/08/03 06:26:27;;;;;;;;;;;;;;;24.65;100.00;99176.91;5107177;28;19942;-60
2023/08/03 06:28:53;;;;;;;;;;;;;;;24.98;100.00;99184.44;5100297;28;19924;-60
2023/08/03 06:31:19;;;;;;;;;;;;;;;25.00;100.00;99187.66;5091780;28;20025;-60
2023/08/03 06:33:45;;;;;;;;;;;;;;;23.94;100.00;99192.78;5095067;28;19917;-60
2023/08/03 06:36:12;;;;;;;;;;;;;;;23.88;100.00;99183.19;5103753;28;19920;-60
2023/08/03 06:38:38;;;;;;;;;;;;;;;24.09;100.00;99191.47;5096422;28;19920;-59
2023/08/03 06:41:04;;;;;;;;;;;;;;;23.99;100.00;99217.19;5094997;28;19916;-57
2023/08/03 06:43:30;;;;;;;;;;;;;;;24.47;100.00;99196.16;5095196;28;19916;-58
2023/08/03 06:45:56;;;;;;;;;;;;;;;24.87;100.00;99191.44;5100434;28;19920;-59
2023/08/03 06:48:21;;;;;;;;;;;;;;;24.43;100.00;99211.56;5098393;28;19928;-58
2023/08/03 06:50:47;;;;;;;;;;;;;;;24.55;100.00;99199.94;5103248;28;19952;-58
2023/08/03 06:53:12;;;;;;;;;;;;;;;24.59;100.00;99200.91;5094798;28;19920;-58
2023/08/03 06:55:38;;;;;;;;;;;;;;;23.99;100.00;99194.53;5096545;28;19923;-57
2023/08/03 06:58:03;;;;;;;;;;;;;;;24.43;100.00;99217.03;5096964;28;19924;-58
2023/08/03 07:00:29;;;;;;;;;;;;;;;24.32;100.00;99208.41;5102662;28;19919;-59
2023/08/03 07:02:55;;;;;;;;;;;;;;;24.45;100.00;99217.53;5081175;28;19917;-59
2023/08/03 07:05:20;;;;;;;;;;;;;;;23.88;100.00;99219.44;5092012;28;19943;-58
2023/08/03 07:07:46;;;;;;;;;;;;;;;24.15;100.00;99235.81;5091554;28;19934;-58
2023/08/03 07:10:12;;;;;;;;;;;;;;;24.47;100.00;99239.88;5101769;28;19916;-59
2023/08/03 07:12:37;;;;;;;;;;;;;;;24.20;100.00;99239.13;5097047;28;19917;-59
2023/08/03 07:15:03;;;;;;;;;;;;;;;24.75;100.00;99236.69;5094762;28;19951;-58
2023/08/03 07:17:28;;;;;;;;;;;;;;;24.54;100.00;99241.28;5105193;28;19921;-59
2023/08/03 07:19:54;;;;;;;;;;;;;;;24.41;100.00;99241.16;5105492;28;19970;-58
2023/08/03 07:22:20;;;;;;;;;;;;;;;24.96;100.00;99252.34;5095550;28;19913;-60
2023/08/03 07:24:46;;;;;;;;;;;;;;;24.43;100.00;99247.09;5093411;28;19952;-60
2023/08/03 07:27:12;;;;;;;;;;;;;;;24.84;100.00;99260.44;5093035;28;19916;-61
2023/08/03 07:29:38;;;;;;;;;;;;;;;24.49;100.00;99251.25;5093490;28;19956;-59
2023/08/03 07:32:04;;;;;;;;;;;;;;;24.45;100.00;99283.09;5092868;28;19942;-60
2023/08/03 07:34:29;;;;;;;;;;;;;;;24.40;100.00;99257.88;5093156;28;19942;-59
2023/08/03 07:36:55;;;;;;;;;;;;;;;25.00;100.00;99264.19;5097892;28;19947;-59
2023/08/03 07:39:21;;;;;;;;;;;;;;;24.62;100.00;99262.28;5099379;28;20152;-60
2023/08/03 07:41:46;;;;;;;;;;;;;;;24.66;100.00;99255.03;5096486;28;20003;-60
2023/08/03 07:44:12;;;;;;;;;;;;;;;24.04;100.00;99262.66;5094663;28;20016;-60
2023/08/03 07:46:37;;;;;;;;;;;;;;;24.25;100.00;99283.81;5094845;28;19920;-61
2023/08/03 07:49:03;;;;;;;;;;;;;;;24.74;100.00;99281.53;5094354;28;19942;-61
2023/08/03 07:51:28;;;;;;;;;;;;;;;25.38;100.00;99276.16;5094543;28;19938;-60
2023/08/03 07:53:54;;;;;;;;;;;;;;;24.44;100.00;99286.94;5077468;28;19917;-61
2023/08/03 07:56:20;;;;;;;;;;;;;;;24.62;100.00;99298.63;5094370;28;19916;-61
2023/08/03 07:58:46;;;;;;;;;;;;;;;24.87;100.00;99301.59;5094638;28;19959;-61
2023/08/03 08:01:12;;;;;;;;;;;;;;;25.13;100.00;99295.16;5095571;28;19923;-61
2023/08/03 08:03:38;;;;;;;;;;;;;;;24.82;100.00;99315.44;5094838;28;19983;-60
2023/08/03 08:06:04;;;;;;;;;;;;;;;25.39;100.00;99320.75;5094182;28;19912;-61
2023/08/03 08:08:30;;;;;;;;;;;;;;;26.13;100.00;99334.00;5096672;28;19928;-60
2023/08/03 08:10:56;;;;;;;;;;;;;;;25.39;100.00;99340.69;5110189;28;19917;-61
2023/08/03 08:13:21;;;;;;;;;;;;;;;25.38;100.00;99332.84;5098220;28;19923;-60
2023/08/03 08:15:47;;;;;;;;;;;;;;;25.25;100.00;99346.41;5097900;28;19939;-61
2023/08/03 08:18:12;;;;;;;;;;;;;;;25.92;100.00;99351.25;5106325;28;19987;-61
2023/08/03 08:20:39;;;;;;;;;;;;;;;25.92;100.00;99364.97;5108282;28;19916;-61
2023/08/03 08:23:04;;;;;;;;;;;;;;;25.73;100.00;99359.97;5098001;28;19927;-60
2023/08/03 08:25:32;;;;;;;;;;;;;;;26.61;100.00;99368.19;5097657;28;20007;-61
2023/08/03 08:27:57;;;;;;;;;;;;;;;26.57;100.00;99378.22;5103250;28;19917;-60
2023/08/03 08:30:23;;;;;;;;;;;;;;;25.80;100.00;99384.09;5103164;28;19917;-59
2023/08/03 08:32:48;;;;;;;;;;;;;;;26.87;100.00;99394.53;5097689;28;19958;-60
2023/08/03 08:35:14;;;;;;;;;;;;;;;26.42;100.00;99403.56;5097707;28;19991;-61
2023/08/03 08:37:39;;;;;;;;;;;;;;;27.16;100.00;99411.13;5110854;28;19916;-58
2023/08/03 08:40:08;;;;;;;;;;;;;;;27.53;100.00;99418.56;5104057;28;19940;-60
2023/08/03 08:42:34;;;;;;;;;;;;;;;27.79;100.00;99439.34;5097495;28;19984;-61
2023/08/03 08:44:59;;;;;;;;;;;;;;;27.66;100.00;99438.56;5097088;28;19955;-60
2023/08/03 08:47:25;;;;;;;;;;;;;;;27.47;100.00;99439.94;5107684;28;19919;-61
2023/08/03 08:49:50;;;;;;;;;;;;;;;27.08;100.00;99442.22;5097358;28;19916;-60
2023/08/03 08:52:17;;;;;;;;;;;;;;;27.41;100.00;99438.56;5097238;28;19942;-60
2023/08/03 08:54:42;;;;;;;;;;;;;;;27.42;100.00;99462.09;5097344;28;19922;-61
2023/08/03 08:57:08;;;;;;;;;;;;;;;27.50;100.00;99458.47;5097161;28;19916;-60
2023/08/03 08:59:33;;;;;;;;;;;;;;;27.76;100.00;99476.53;5098166;28;19927;-61
2023/08/03 09:02:01;;;;;;;;;;;;;;;27.66;100.00;99485.22;5097078;28;19991;-61
2023/08/03 09:04:27;;;;;;;;;;;;;;;27.79;100.00;99495.06;5084341;28;19924;-59
2023/08/03 09:06:53;;;;;;;;;;;;;;;28.28;100.00;99487.91;5096802;28;19916;-60
2023/08/03 09:09:31;;;;;;;;;;;;;;;27.91;100.00;99506.06;5102624;28;19973;-60
2023/08/03 09:11:57;;;;;;;;;;;;;;;28.87;100.00;99504.88;5100874;28;19923;-60
2023/08/03 09:14:22;;;;;;;;;;;;;;;27.43;100.00;99507.63;5096712;28;19917;-60
2023/08/03 09:16:48;;;;;;;;;;;;;;;27.27;100.00;99513.81;5100803;28;19987;-61
2023/08/03 09:19:13;;;;;;;;;;;;;;;26.65;100.00;99518.31;5097287;28;19921;-60
2023/08/03 09:21:39;;;;;;;;;;;;;;;27.16;100.00;99526.34;5095846;28;19923;-60
2023/08/03 09:24:22;;;;;;;;;;;;;;;27.29;100.00;99532.66;5096627;28;19938;-60
2023/08/03 09:26:47;;;;;;;;;;;;;;;27.94;100.00;99536.72;5098763;28;19916;-60
2023/08/03 09:29:16;;;;;;;;;;;;;;;28.45;100.00;99541.78;5096641;28;19916;-61
2023/08/03 09:31:41;;;;;;;;;;;;;;;28.32;100.00;99543.78;5096822;28;19917;-59
2023/08/03 09:34:07;;;;;;;;;;;;;;;29.09;100.00;99552.22;5096597;28;19945;-60
2023/08/03 09:36:32;;;;;;;;;;;;;;;28.66;100.00;99566.34;5097447;28;19917;-61
2023/08/03 09:39:10;;;;;;;;;;;;;;;29.48;100.00;99578.03;5108026;28;19924;-60
2023/08/03 09:41:36;;;;;;;;;;;;;;;30.42;100.00;99584.91;5096278;28;19959;-61
2023/08/03 09:44:04;;;;;;;;;;;;;;;29.99;100.00;99583.94;5096016;28;19916;-59
2023/08/03 09:46:29;;;;;;;;;;;;;;;29.74;100.00;99587.69;5096047;28;19917;-61
2023/08/03 09:48:56;;;;;;;;;;;;;;;29.89;100.00;99596.31;5106474;28;19992;-61
2023/08/03 09:51:24;;;;;;;;;;;;;;;30.57;100.00;99596.25;5096085;28;19928;-60
2023/08/03 09:53:54;;;;;;;;;;;;;;;31.32;100.00;99601.69;5096170;28;19955;-60
2023/08/03 09:56:24;;;;;;;;;;;;;;;31.45;100.00;99605.88;5098436;28;19917;-60
2023/08/03 09:58:56;;;;;;;;;;;;;;;30.55;100.00;99612.38;5103923;28;19944;-60
2023/08/03 10:01:26;;;;;;;;;;;;;;;30.01;100.00;99614.72;5094989;28;19986;-59
2023/08/03 10:03:55;;;;;;;;;;;;;;;30.64;100.00;99607.47;5095891;28;19917;-60
2023/08/03 10:06:25;;;;;;;;;;;;;;;32.27;100.00;99623.34;5089256;28;19943;-60
2023/08/03 10:08:54;;;;;;;;;;;;;;;32.36;100.00;99623.91;5096732;28;19916;-60
2023/08/03 10:11:21;;;;;;;;;;;;;;;32.66;100.00;99625.88;5095707;28;19916;-59
2023/08/03 10:13:50;;;;;;;;;;;;;;;33.31;100.00;99632.19;5095539;28;19939;-60
2023/08/03 10:16:16;;;;;;;;;;;;;;;32.75;95.17;99634.69;5100483;28;19931;-61
2023/08/03 10:18:43;;;;;;;;;;;;;;;34.81;93.54;99647.94;5098133;28;19921;-61
2023/08/03 10:21:10;;;;;;;;;;;;;;;34.17;94.76;99636.91;5095664;28;19916;-60
2023/08/03 10:23:38;;;;;;;;;;;;;;;33.55;94.89;99640.31;5095444;28;19912;-60
2023/08/03 10:26:04;;;;;;;;;;;;;;;33.57;93.74;99644.31;5081178;28;19912;-61
2023/08/03 10:28:44;;;;;;;;;;;;;;;32.76;95.26;99660.41;5099695;28;19923;-61
2023/08/03 10:31:14;;;;;;;;;;;;;;;31.90;100.00;99644.13;5097520;28;19920;-60
2023/08/03 10:33:45;;;;;;;;;;;;;;;31.30;100.00;99662.03;5094735;28;20015;-60
2023/08/03 10:36:30;;;;;;;;;;;;;;;30.32;100.00;99668.22;5099010;28;19960;-60
2023/08/03 10:38:57;;;;;;;;;;;;;;;32.19;100.00;99664.72;5103337;28;19924;-60
2023/08/03 10:41:23;;;;;;;;;;;;;;;32.57;100.00;99672.41;5095028;28;19916;-60
2023/08/03 10:44:14;;;;;;;;;;;;;;;31.79;100.00;99682.66;5094987;28;19943;-60
2023/08/03 10:46:43;;;;;;;;;;;;;;;31.97;100.00;99682.16;5095197;28;19952;-60
2023/08/03 10:49:24;;;;;;;;;;;;;;;30.89;100.00;99687.19;5102254;28;19916;-59
2023/08/03 10:51:55;;;;;;;;;;;;;;;29.28;100.00;99705.69;5083261;28;19917;-60
2023/08/03 10:54:27;;;;;;;;;;;;;;;29.48;100.00;99721.22;5094766;28;19991;-60
2023/08/03 10:57:15;;;;;;;;;;;;;;;28.70;100.00;99726.78;5095176;28;19916;-60
2023/08/03 10:59:43;;;;;;;;;;;;;;;28.57;100.00;99727.94;5096911;28;19920;-60
2023/08/03 11:02:13;;;;;;;;;;;;;;;29.10;100.00;99739.00;5102175;28;19920;-60
2023/08/03 11:04:39;;;;;;;;;;;;;;;28.87;100.00;99731.25;5094979;28;19912;-61
2023/08/03 11:07:05;;;;;;;;;;;;;;;29.13;100.00;99732.00;5102621;28;19923;-60
2023/08/03 11:09:31;;;;;;;;;;;;;;;29.50;100.00;99742.88;5107027;28;19917;-61
2023/08/03 11:11:57;;;;;;;;;;;;;;;28.90;100.00;99749.03;5110766;28;19963;-60
2023/08/03 11:14:23;;;;;;;;;;;;;;;28.30;100.00;99757.72;5094875;28;19923;-60
2023/08/03 11:16:49;;;;;;;;;;;;;;;28.28;100.00;99755.31;5094969;28;19924;-60
2023/08/03 11:19:15;;;;;;;;;;;;;;;27.76;100.00;99767.66;5104815;28;19930;-60
2023/08/03 11:21:41;;;;;;;;;;;;;;;28.12;100.00;99768.88;5094957;28;19917;-60
2023/08/03 11:24:07;;;;;;;;;;;;;;;28.10;100.00;99762.91;5094620;28;19988;-60
2023/08/03 11:26:32;;;;;;;;;;;;;;;28.42;100.00;99776.97;5094061;28;19939;-60
2023/08/03 11:28:58;;;;;;;;;;;;;;;28.55;100.00;99780.53;5094218;28;19920;-60
2023/08/03 11:31:23;;;;;;;;;;;;;;;28.53;100.00;99788.34;5095747;28;19920;-60
2023/08/03 11:33:49;;;;;;;;;;;;;;;29.24;100.00;99801.91;5094719;28;19916;-58
2023/08/03 11:36:15;;;;;;;;;;;;;;;29.07;100.00;99813.22;5094797;28;19927;-60
2023/08/03 11:38:41;;;;;;;;;;;;;;;29.00;100.00;99811.81;5094546;28;19943;-59
2023/08/03 11:41:07;;;;;;;;;;;;;;;28.82;100.00;99816.78;5105160;28;19927;-60
2023/08/03 11:43:32;;;;;;;;;;;;;;;28.51;100.00;99833.81;5095873;28;19939;-59
2023/08/03 11:45:58;;;;;;;;;;;;;;;29.84;100.00;99841.78;5097012;28;19916;-59
2023/08/03 11:48:25;;;;;;;;;;;;;;;28.76;100.00;99840.91;5098535;28;19979;-59
2023/08/03 11:50:54;;;;;;;;;;;;;;;29.53;100.00;99844.09;5098332;28;19916;-59
2023/08/03 11:53:24;;;;;;;;;;;;;;;29.72;100.00;99861.94;5098446;28;19916;-60
2023/08/03 11:55:49;;;;;;;;;;;;;;;28.65;100.00;99863.72;5101066;28;19926;-60
2023/08/03 11:58:15;;;;;;;;;;;;;;;29.84;100.00;99872.09;5101663;28;19916;-60
2023/08/03 12:00:41;;;;;;;;;;;;;;;30.26;100.00;99884.72;5109820;28;19923;-61
2023/08/03 12:03:07;;;;;;;;;;;;;;;29.97;100.00;99889.38;5084901;28;19917;-61
2023/08/03 12:05:44;;;;;;;;;;;;;;;28.82;100.00;99901.25;5098131;28;19916;-60
2023/08/03 12:08:10;;;;;;;;;;;;;;;28.64;100.00;99884.94;5098092;28;19984;-60
2023/08/03 12:10:35;;;;;;;;;;;;;;;28.66;100.00;99907.41;5114304;28;19916;-60
2023/08/03 12:13:07;;;;;;;;;;;;;;;28.55;100.00;99907.03;5097918;28;19927;-60
2023/08/03 12:15:32;;;;;;;;;;;;;;;29.15;100.00;99920.41;5098049;28;19913;-60
2023/08/03 12:17:58;;;;;;;;;;;;;;;30.47;100.00;99923.06;5107898;28;19916;-60
2023/08/03 12:20:23;;;;;;;;;;;;;;;30.24;100.00;99926.41;5101659;28;19927;-60
2023/08/03 12:22:48;;;;;;;;;;;;;;;29.84;100.00;99940.97;5097848;28;19927;-59
2023/08/03 12:25:14;;;;;;;;;;;;;;;28.16;100.00;99948.50;5097559;28;19917;-60
2023/08/03 12:27:39;;;;;;;;;;;;;;;29.16;100.00;99951.50;5097923;28;19916;-60
2023/08/03 12:30:05;;;;;;;;;;;;;;;28.59;100.00;99962.13;5097687;28;19940;-60
2023/08/03 12:32:31;;;;;;;;;;;;;;;29.49;100.00;99961.59;5106244;28;19912;-59
2023/08/03 12:34:57;;;;;;;;;;;;;;;28.74;100.00;99972.50;5097765;28;19939;-60